sensor_id;sensor_type;location;lat;lon;timestamp;P1;durP1;ratioP1;P2;durP2;ratioP2
50128;SDS011;36026;45.478;9.224;2023-07-13T00:01:07;5.28;;;2.08;;
50128;SDS011;36026;45.478;9.224;2023-07-13T00:04:08;5.80;;;2.55;;
50128;SDS011;36026;45.478;9.224;2023-07-13T00:07:10;6.60;;;1.98;;
50128;SDS011;36026;45.478;9.224;2023-07-13T00:10:18;4.10;;;2.08;;
50128;SDS011;36026;45.478;9.224;2023-07-13T00:13:20;3.90;;;2.00;;
50128;SDS011;36026;45.478;9.224;2023-07-13T00:16:22;5.00;;;2.10;;
50128;SDS011;36026;45.478;9.224;2023-07-13T00:19:23;5.80;;;2.22;;
50128;SDS011;36026;45.478;9.224;2023-07-13T00:22:28;3.40;;;1.95;;
50128;SDS011;36026;45.478;9.224;2023-07-13T00:25:31;4.95;;;1.92;;
50128;SDS011;36026;45.478;9.224;2023-07-13T00:31:34;4.18;;;1.67;;
50128;SDS011;36026;45.478;9.224;2023-07-13T00:34:36;4.85;;;1.98;;
50128;SDS011;36026;45.478;9.224;2023-07-13T00:37:39;5.78;;;2.10;;
50128;SDS011;36026;45.478;9.224;2023-07-13T00:43:44;5.57;;;2.53;;
50128;SDS011;36026;45.478;9.224;2023-07-13T00:46:46;2.80;;;1.65;;
50128;SDS011;36026;45.478;9.224;2023-07-13T00:49:47;7.00;;;2.47;;
50128;SDS011;36026;45.478;9.224;2023-07-13T00:52:50;5.53;;;2.15;;
50128;SDS011;36026;45.478;9.224;2023-07-13T00:55:54;5.53;;;2.42;;
50128;SDS011;36026;45.478;9.224;2023-07-13T00:58:57;4.18;;;1.90;;
50128;SDS011;36026;45.478;9.224;2023-07-13T01:02:03;4.20;;;1.65;;
50128;SDS011;36026;45.478;9.224;2023-07-13T01:05:08;4.90;;;1.98;;
50128;SDS011;36026;45.478;9.224;2023-07-13T01:08:12;4.03;;;2.30;;
50128;SDS011;36026;45.478;9.224;2023-07-13T01:14:16;7.40;;;2.58;;
50128;SDS011;36026;45.478;9.224;2023-07-13T01:17:19;3.97;;;1.90;;
50128;SDS011;36026;45.478;9.224;2023-07-13T01:20:21;3.90;;;2.10;;
50128;SDS011;36026;45.478;9.224;2023-07-13T01:23:24;5.07;;;1.65;;
50128;SDS011;36026;45.478;9.224;2023-07-13T01:26:26;4.28;;;2.10;;
50128;SDS011;36026;45.478;9.224;2023-07-13T01:29:28;4.70;;;2.40;;
50128;SDS011;36026;45.478;9.224;2023-07-13T01:32:33;3.45;;;2.10;;
50128;SDS011;36026;45.478;9.224;2023-07-13T01:35:34;4.72;;;1.90;;
50128;SDS011;36026;45.478;9.224;2023-07-13T01:38:37;5.25;;;2.40;;
50128;SDS011;36026;45.478;9.224;2023-07-13T01:41:41;6.00;;;2.63;;
50128;SDS011;36026;45.478;9.224;2023-07-13T01:44:44;3.95;;;2.38;;
50128;SDS011;36026;45.478;9.224;2023-07-13T01:47:46;4.57;;;2.58;;
50128;SDS011;36026;45.478;9.224;2023-07-13T01:50:48;5.97;;;2.65;;
50128;SDS011;36026;45.478;9.224;2023-07-13T01:53:51;7.13;;;2.60;;
50128;SDS011;36026;45.478;9.224;2023-07-13T01:56:53;8.05;;;3.08;;
50128;SDS011;36026;45.478;9.224;2023-07-13T01:59:54;5.90;;;2.65;;
50128;SDS011;36026;45.478;9.224;2023-07-13T02:02:55;6.57;;;2.60;;
50128;SDS011;36026;45.478;9.224;2023-07-13T02:05:57;8.77;;;3.15;;
50128;SDS011;36026;45.478;9.224;2023-07-13T02:09:00;7.22;;;2.72;;
50128;SDS011;36026;45.478;9.224;2023-07-13T02:12:09;4.88;;;2.70;;
50128;SDS011;36026;45.478;9.224;2023-07-13T02:15:11;5.80;;;3.33;;
50128;SDS011;36026;45.478;9.224;2023-07-13T02:18:12;5.50;;;2.90;;
50128;SDS011;36026;45.478;9.224;2023-07-13T02:21:17;9.88;;;3.10;;
50128;SDS011;36026;45.478;9.224;2023-07-13T02:24:20;6.47;;;2.90;;
50128;SDS011;36026;45.478;9.224;2023-07-13T02:27:21;5.15;;;2.72;;
50128;SDS011;36026;45.478;9.224;2023-07-13T02:30:23;7.65;;;3.10;;
50128;SDS011;36026;45.478;9.224;2023-07-13T02:33:25;7.13;;;3.13;;
50128;SDS011;36026;45.478;9.224;2023-07-13T02:36:27;6.70;;;3.20;;
50128;SDS011;36026;45.478;9.224;2023-07-13T02:39:30;3.95;;;2.45;;
50128;SDS011;36026;45.478;9.224;2023-07-13T02:42:33;6.07;;;2.70;;
50128;SDS011;36026;45.478;9.224;2023-07-13T02:45:34;5.10;;;2.95;;
50128;SDS011;36026;45.478;9.224;2023-07-13T02:48:36;7.10;;;2.90;;
50128;SDS011;36026;45.478;9.224;2023-07-13T02:51:38;3.78;;;2.05;;
50128;SDS011;36026;45.478;9.224;2023-07-13T02:54:41;5.18;;;2.30;;
50128;SDS011;36026;45.478;9.224;2023-07-13T02:57:43;5.50;;;2.13;;
50128;SDS011;36026;45.478;9.224;2023-07-13T03:00:44;4.20;;;2.33;;
50128;SDS011;36026;45.478;9.224;2023-07-13T03:03:46;5.78;;;2.60;;
50128;SDS011;36026;45.478;9.224;2023-07-13T03:06:48;4.85;;;2.55;;
50128;SDS011;36026;45.478;9.224;2023-07-13T03:09:54;6.28;;;2.80;;
50128;SDS011;36026;45.478;9.224;2023-07-13T03:12:56;7.22;;;2.90;;
50128;SDS011;36026;45.478;9.224;2023-07-13T03:15:58;4.57;;;2.40;;
50128;SDS011;36026;45.478;9.224;2023-07-13T03:18:59;5.43;;;2.50;;
50128;SDS011;36026;45.478;9.224;2023-07-13T03:22:01;9.90;;;2.80;;
50128;SDS011;36026;45.478;9.224;2023-07-13T03:25:04;6.30;;;2.90;;
50128;SDS011;36026;45.478;9.224;2023-07-13T03:28:06;5.75;;;3.10;;
50128;SDS011;36026;45.478;9.224;2023-07-13T03:31:08;5.93;;;3.13;;
50128;SDS011;36026;45.478;9.224;2023-07-13T03:34:10;7.88;;;3.05;;
50128;SDS011;36026;45.478;9.224;2023-07-13T03:37:12;7.07;;;2.80;;
50128;SDS011;36026;45.478;9.224;2023-07-13T03:40:15;6.50;;;3.25;;
50128;SDS011;36026;45.478;9.224;2023-07-13T03:43:17;7.40;;;3.53;;
50128;SDS011;36026;45.478;9.224;2023-07-13T03:46:20;5.55;;;3.53;;
50128;SDS011;36026;45.478;9.224;2023-07-13T03:49:22;5.68;;;3.50;;
50128;SDS011;36026;45.478;9.224;2023-07-13T03:52:23;11.02;;;3.80;;
50128;SDS011;36026;45.478;9.224;2023-07-13T03:55:26;9.38;;;3.63;;
50128;SDS011;36026;45.478;9.224;2023-07-13T03:58:29;6.88;;;3.53;;
50128;SDS011;36026;45.478;9.224;2023-07-13T04:01:31;6.32;;;3.80;;
50128;SDS011;36026;45.478;9.224;2023-07-13T04:04:33;7.40;;;3.70;;
50128;SDS011;36026;45.478;9.224;2023-07-13T04:07:34;5.25;;;3.75;;
50128;SDS011;36026;45.478;9.224;2023-07-13T04:10:37;6.63;;;4.13;;
50128;SDS011;36026;45.478;9.224;2023-07-13T04:13:40;5.90;;;3.40;;
50128;SDS011;36026;45.478;9.224;2023-07-13T04:16:41;7.78;;;3.75;;
50128;SDS011;36026;45.478;9.224;2023-07-13T04:19:43;7.13;;;4.07;;
50128;SDS011;36026;45.478;9.224;2023-07-13T04:22:45;7.28;;;3.83;;
50128;SDS011;36026;45.478;9.224;2023-07-13T04:25:48;11.70;;;4.20;;
50128;SDS011;36026;45.478;9.224;2023-07-13T04:28:52;6.55;;;3.45;;
50128;SDS011;36026;45.478;9.224;2023-07-13T04:31:54;8.30;;;3.58;;
50128;SDS011;36026;45.478;9.224;2023-07-13T04:34:55;8.15;;;3.70;;
50128;SDS011;36026;45.478;9.224;2023-07-13T04:37:59;7.85;;;3.90;;
50128;SDS011;36026;45.478;9.224;2023-07-13T04:41:25;9.30;;;3.40;;
50128;SDS011;36026;45.478;9.224;2023-07-13T04:44:26;8.23;;;3.78;;
50128;SDS011;36026;45.478;9.224;2023-07-13T04:47:29;8.18;;;3.97;;
50128;SDS011;36026;45.478;9.224;2023-07-13T04:53:33;8.35;;;4.13;;
50128;SDS011;36026;45.478;9.224;2023-07-13T04:56:36;8.60;;;4.15;;
50128;SDS011;36026;45.478;9.224;2023-07-13T04:59:37;6.82;;;3.20;;
50128;SDS011;36026;45.478;9.224;2023-07-13T05:02:39;7.30;;;3.30;;
50128;SDS011;36026;45.478;9.224;2023-07-13T05:05:41;6.03;;;3.33;;
50128;SDS011;36026;45.478;9.224;2023-07-13T05:08:42;7.47;;;3.28;;
50128;SDS011;36026;45.478;9.224;2023-07-13T05:11:45;7.13;;;3.42;;
50128;SDS011;36026;45.478;9.224;2023-07-13T05:14:46;4.90;;;3.10;;
50128;SDS011;36026;45.478;9.224;2023-07-13T05:17:49;8.75;;;3.55;;
50128;SDS011;36026;45.478;9.224;2023-07-13T05:20:57;5.47;;;3.10;;
50128;SDS011;36026;45.478;9.224;2023-07-13T05:23:59;6.47;;;3.40;;
50128;SDS011;36026;45.478;9.224;2023-07-13T05:27:02;7.97;;;3.47;;
50128;SDS011;36026;45.478;9.224;2023-07-13T05:30:04;6.43;;;3.10;;
50128;SDS011;36026;45.478;9.224;2023-07-13T05:33:05;9.75;;;3.00;;
50128;SDS011;36026;45.478;9.224;2023-07-13T05:36:07;7.10;;;2.70;;
50128;SDS011;36026;45.478;9.224;2023-07-13T05:39:16;4.88;;;2.70;;
50128;SDS011;36026;45.478;9.224;2023-07-13T05:42:19;5.85;;;2.90;;
50128;SDS011;36026;45.478;9.224;2023-07-13T05:45:20;7.30;;;2.78;;
50128;SDS011;36026;45.478;9.224;2023-07-13T05:48:22;6.85;;;2.40;;
50128;SDS011;36026;45.478;9.224;2023-07-13T05:51:23;4.53;;;1.90;;
50128;SDS011;36026;45.478;9.224;2023-07-13T05:54:26;6.88;;;1.85;;
50128;SDS011;36026;45.478;9.224;2023-07-13T05:57:29;3.57;;;1.37;;
